Time;durP1;ratioP1;P1;durP2;ratioP2;P2;SDS_P1;SDS_P2;PMS_P1;PMS_P2;Temp;Humidity;BMP_temperature;BMP_pressure;BME280_temperature;BME280_humidity;BME280_pressure;Samples;Min_cycle;Max_cycle;Signal;HPM_P1;HPM_P2
2023/11/28 00:02:22;;;;;;;11.07;7.23;;;;;;;;;;5094932;28;20387;-29
2023/11/28 00:04:49;;;;;;;9.82;6.65;;;;;;;;;;5094910;28;20277;-29
2023/11/28 00:07:14;;;;;;;10.20;7.43;;;;;;;;;;5094178;28;20098;-28
2023/11/28 00:09:39;;;;;;;8.48;6.43;;;;;;;;;;5094917;28;20020;-28
2023/11/28 00:12:04;;;;;;;8.55;6.13;;;;;;;;;;5094766;28;20043;-28
2023/11/28 00:14:30;;;;;;;9.50;6.65;;;;;;;;;;5094863;28;20502;-28
2023/11/28 00:16:55;;;;;;;8.32;6.50;;;;;;;;;;5095029;28;20016;-28
2023/11/28 00:19:20;;;;;;;7.95;5.55;;;;;;;;;;5094697;28;20016;-28
2023/11/28 00:21:45;;;;;;;8.07;5.82;;;;;;;;;;5094907;28;20023;-28
2023/11/28 00:24:11;;;;;;;7.70;5.57;;;;;;;;;;5094801;28;20019;-28
2023/11/28 00:26:36;;;;;;;8.00;5.95;;;;;;;;;;5094818;28;20016;-29
2023/11/28 00:29:01;;;;;;;8.75;5.53;;;;;;;;;;5094553;28;20027;-29
2023/11/28 00:31:26;;;;;;;7.45;5.18;;;;;;;;;;5094733;28;20020;-29
2023/11/28 00:33:52;;;;;;;6.73;4.80;;;;;;;;;;5094993;28;20023;-30
2023/11/28 00:36:17;;;;;;;8.63;5.30;;;;;;;;;;5094303;28;20744;-29
2023/11/28 00:38:43;;;;;;;6.90;5.20;;;;;;;;;;5094657;28;20270;-29
2023/11/28 00:41:09;;;;;;;7.00;5.05;;;;;;;;;;5094362;28;20375;-28
2023/11/28 00:43:34;;;;;;;6.85;5.05;;;;;;;;;;5094392;28;20047;-29
2023/11/28 00:45:59;;;;;;;8.10;5.30;;;;;;;;;;5094245;28;20463;-29
2023/11/28 00:48:25;;;;;;;7.93;5.50;;;;;;;;;;5094706;28;20297;-28
2023/11/28 00:50:50;;;;;;;7.15;5.15;;;;;;;;;;5094464;28;20035;-29
2023/11/28 00:53:16;;;;;;;9.20;6.05;;;;;;;;;;5094425;28;20130;-28
2023/11/28 00:55:41;;;;;;;7.53;5.50;;;;;;;;;;5094059;28;20020;-29
2023/11/28 00:58:06;;;;;;;8.90;5.32;;;;;;;;;;5093805;28;20044;-29
2023/11/28 01:00:31;;;;;;;8.98;5.43;;;;;;;;;;5094004;28;20059;-29
2023/11/28 01:02:59;;;;;;;9.00;5.45;;;;;;;;;;5094156;28;20074;-29
2023/11/28 01:05:24;;;;;;;7.90;5.28;;;;;;;;;;5094132;28;20027;-28
2023/11/28 01:07:49;;;;;;;7.53;4.97;;;;;;;;;;5094161;28;20012;-29
2023/11/28 01:10:15;;;;;;;7.17;5.10;;;;;;;;;;5093928;28;20478;-29
2023/11/28 01:12:40;;;;;;;7.40;4.97;;;;;;;;;;5093677;28;20349;-29
2023/11/28 01:15:05;;;;;;;7.23;5.37;;;;;;;;;;5094254;28;20101;-29
2023/11/28 01:17:31;;;;;;;7.85;5.18;;;;;;;;;;5094008;28;20258;-29
2023/11/28 01:19:56;;;;;;;7.32;5.28;;;;;;;;;;5093672;28;20356;-29
2023/11/28 01:22:21;;;;;;;8.70;5.43;;;;;;;;;;5093901;28;20406;-29
2023/11/28 01:24:47;;;;;;;7.43;4.80;;;;;;;;;;5093878;28;20463;-29
2023/11/28 01:27:12;;;;;;;6.30;4.43;;;;;;;;;;5093616;28;20025;-28
2023/11/28 01:29:37;;;;;;;7.70;4.65;;;;;;;;;;5093822;28;20470;-29
2023/11/28 01:32:03;;;;;;;7.70;4.93;;;;;;;;;;5093795;28;20474;-29
2023/11/28 01:34:28;;;;;;;6.15;4.32;;;;;;;;;;5093810;28;20378;-29
2023/11/28 01:36:53;;;;;;;7.28;4.53;;;;;;;;;;5093511;28;20013;-29
2023/11/28 01:39:18;;;;;;;5.90;4.00;;;;;;;;;;5093495;28;20148;-29
2023/11/28 01:41:47;;;;;;;6.50;4.50;;;;;;;;;;5093333;28;20059;-28
2023/11/28 01:44:12;;;;;;;6.63;4.60;;;;;;;;;;5093415;28;20016;-29
2023/11/28 01:46:39;;;;;;;7.45;4.22;;;;;;;;;;5093920;28;20012;-29
2023/11/28 01:49:04;;;;;;;7.30;4.22;;;;;;;;;;5093340;28;20009;-28
2023/11/28 01:51:30;;;;;;;8.18;4.72;;;;;;;;;;5093670;28;20086;-29
2023/11/28 01:53:58;;;;;;;10.45;4.53;;;;;;;;;;5093229;28;20024;-29
2023/11/28 01:56:23;;;;;;;7.05;4.70;;;;;;;;;;5093322;28;20060;-29
2023/11/28 01:58:49;;;;;;;7.13;4.05;;;;;;;;;;5093309;28;20426;-28
2023/11/28 02:01:15;;;;;;;8.73;4.18;;;;;;;;;;5093769;28;20031;-29
2023/11/28 02:03:41;;;;;;;6.80;4.10;;;;;;;;;;5093180;28;20031;-29
2023/11/28 02:06:06;;;;;;;6.70;4.07;;;;;;;;;;5093211;28;20099;-28
2023/11/28 02:08:31;;;;;;;6.15;4.13;;;;;;;;;;5093481;28;20497;-28
2023/11/28 02:10:57;;;;;;;8.77;4.10;;;;;;;;;;5093453;28;20020;-28
2023/11/28 02:13:23;;;;;;;6.68;3.88;;;;;;;;;;5093140;28;20024;-29
2023/11/28 02:15:48;;;;;;;6.38;3.95;;;;;;;;;;5093421;28;20016;-29
2023/11/28 02:18:14;;;;;;;6.63;3.80;;;;;;;;;;5093376;28;20020;-28
2023/11/28 02:20:40;;;;;;;8.20;3.58;;;;;;;;;;5093375;28;20043;-29
2023/11/28 02:23:05;;;;;;;5.47;3.40;;;;;;;;;;5093422;28;20028;-29
2023/11/28 02:25:44;;;;;;;6.60;3.63;;;;;;;;;;5093107;28;20091;-29
2023/11/28 02:28:09;;;;;;;5.80;3.75;;;;;;;;;;5092972;28;20016;-29
2023/11/28 02:30:34;;;;;;;8.35;3.33;;;;;;;;;;5094468;28;20070;-29
2023/11/28 02:32:59;;;;;;;6.63;2.90;;;;;;;;;;5097351;28;20505;-28
2023/11/28 02:35:24;;;;;;;5.30;3.17;;;;;;;;;;5078553;28;20019;-28
2023/11/28 02:37:49;;;;;;;5.87;3.13;;;;;;;;;;5078478;28;20420;-28
2023/11/28 02:40:15;;;;;;;4.65;2.85;;;;;;;;;;5096937;28;20258;-28
2023/11/28 02:42:40;;;;;;;5.38;2.97;;;;;;;;;;5096825;28;20035;-29
2023/11/28 02:45:05;;;;;;;5.33;3.00;;;;;;;;;;5096584;28;20517;-28
2023/11/28 02:47:30;;;;;;;4.28;2.53;;;;;;;;;;5096809;28;20258;-28
2023/11/28 02:49:56;;;;;;;5.57;3.08;;;;;;;;;;5096486;28;20451;-28
2023/11/28 02:52:21;;;;;;;5.95;2.75;;;;;;;;;;5096673;28;20016;-28
2023/11/28 02:54:46;;;;;;;4.47;2.55;;;;;;;;;;5096956;28;20016;-29
2023/11/28 02:57:11;;;;;;;5.67;2.67;;;;;;;;;;5096438;28;20076;-29
2023/11/28 02:59:36;;;;;;;4.37;2.33;;;;;;;;;;5096783;28;20326;-29
2023/11/28 03:02:02;;;;;;;4.33;2.40;;;;;;;;;;5096436;28;20440;-29
2023/11/28 03:04:27;;;;;;;3.85;2.00;;;;;;;;;;5095981;28;20274;-28
2023/11/28 03:06:52;;;;;;;3.70;2.03;;;;;;;;;;5096630;28;20020;-29
2023/11/28 03:09:17;;;;;;;8.52;2.30;;;;;;;;;;5096516;28;20036;-29
2023/11/28 03:11:43;;;;;;;4.97;2.10;;;;;;;;;;5095894;28;20466;-28
2023/11/28 03:14:08;;;;;;;4.45;1.80;;;;;;;;;;5095883;28;20261;-28
2023/11/28 03:16:33;;;;;;;3.30;2.10;;;;;;;;;;5095927;28;20382;-28
2023/11/28 03:18:58;;;;;;;2.93;1.93;;;;;;;;;;5095950;28;20020;-29
2023/11/28 03:21:23;;;;;;;2.20;1.43;;;;;;;;;;5096180;28;20254;-29
2023/11/28 03:23:48;;;;;;;3.43;1.80;;;;;;;;;;5096232;28;20368;-28
2023/11/28 03:26:14;;;;;;;3.50;1.70;;;;;;;;;;5095760;28;20790;-28
2023/11/28 03:28:39;;;;;;;3.58;1.80;;;;;;;;;;5096257;28;20258;-29
2023/11/28 03:31:04;;;;;;;2.87;1.70;;;;;;;;;;5095632;28;20070;-29
2023/11/28 03:33:29;;;;;;;2.58;1.60;;;;;;;;;;5096159;28;20250;-28
2023/11/28 03:35:54;;;;;;;2.80;1.58;;;;;;;;;;5095636;28;20482;-28
2023/11/28 03:38:20;;;;;;;3.93;1.70;;;;;;;;;;5095551;28;20163;-28
2023/11/28 03:40:45;;;;;;;4.35;1.55;;;;;;;;;;5095544;28;20720;-29
2023/11/28 03:43:10;;;;;;;6.73;1.60;;;;;;;;;;5094221;28;20020;-29
2023/11/28 03:45:35;;;;;;;2.95;1.45;;;;;;;;;;5095437;28;20258;-28
2023/11/28 03:48:00;;;;;;;4.00;1.50;;;;;;;;;;5095394;28;20020;-28
2023/11/28 03:50:25;;;;;;;3.38;1.55;;;;;;;;;;5095321;28;20334;-29
2023/11/28 03:52:51;;;;;;;7.07;1.50;;;;;;;;;;5095554;28;20023;-29
2023/11/28 03:55:17;;;;;;;3.33;1.60;;;;;;;;;;5095588;28;20047;-28
2023/11/28 03:57:42;;;;;;;1.73;1.33;;;;;;;;;;5094969;28;20761;-28
2023/11/28 04:00:09;;;;;;;2.53;1.40;;;;;;;;;;5095377;28;20030;-29
2023/11/28 04:02:35;;;;;;;3.67;1.70;;;;;;;;;;5095222;28;20047;-28
2023/11/28 04:05:00;;;;;;;2.28;1.40;;;;;;;;;;5095074;28;20454;-29
2023/11/28 04:07:26;;;;;;;1.52;1.13;;;;;;;;;;5095143;28;20140;-29
2023/11/28 04:09:51;;;;;;;2.50;1.40;;;;;;;;;;5094950;28;20044;-29
2023/11/28 04:12:16;;;;;;;1.73;1.15;;;;;;;;;;5094808;28;20265;-29
2023/11/28 04:14:42;;;;;;;2.15;1.55;;;;;;;;;;5095432;28;20027;-29
2023/11/28 04:17:07;;;;;;;6.60;1.90;;;;;;;;;;5095069;28;20371;-29
2023/11/28 04:19:32;;;;;;;4.72;1.80;;;;;;;;;;5094746;28;20032;-29
2023/11/28 04:21:57;;;;;;;3.72;1.50;;;;;;;;;;5094703;28;20020;-29
2023/11/28 04:24:23;;;;;;;2.27;1.40;;;;;;;;;;5094499;28;20466;-29
2023/11/28 04:26:48;;;;;;;2.55;1.50;;;;;;;;;;5095176;28;20250;-29
2023/11/28 04:29:13;;;;;;;2.92;1.70;;;;;;;;;;5094546;28;20356;-29
2023/11/28 04:31:38;;;;;;;5.15;1.50;;;;;;;;;;5095074;28;20024;-29
2023/11/28 04:34:03;;;;;;;3.27;1.53;;;;;;;;;;5095042;28;20059;-29
2023/11/28 04:36:29;;;;;;;2.13;1.42;;;;;;;;;;5094377;28;20266;-29
2023/11/28 04:38:54;;;;;;;2.92;1.40;;;;;;;;;;5094927;28;20024;-29
2023/11/28 04:41:19;;;;;;;3.05;1.50;;;;;;;;;;5093941;28;20090;-29
2023/11/28 04:43:45;;;;;;;2.38;1.60;;;;;;;;;;5094130;28;20016;-28
2023/11/28 04:46:10;;;;;;;4.53;1.33;;;;;;;;;;5093789;28;20016;-29
2023/11/28 04:48:35;;;;;;;5.47;1.33;;;;;;;;;;5093453;28;20020;-29
2023/11/28 04:51:00;;;;;;;2.30;1.30;;;;;;;;;;5093151;28;20099;-28
2023/11/28 04:53:26;;;;;;;2.78;1.50;;;;;;;;;;5075239;28;20266;-28
2023/11/28 04:55:51;;;;;;;2.60;1.30;;;;;;;;;;5094080;28;20024;-30
2023/11/28 04:58:16;;;;;;;2.90;1.33;;;;;;;;;;5094015;28;20032;-29
2023/11/28 05:00:41;;;;;;;2.40;1.03;;;;;;;;;;5094563;28;20261;-29
2023/11/28 05:03:07;;;;;;;2.20;1.23;;;;;;;;;;5093873;28;20391;-28
2023/11/28 05:05:32;;;;;;;1.33;1.10;;;;;;;;;;5093918;28;20551;-28
2023/11/28 05:07:57;;;;;;;1.33;1.03;;;;;;;;;;5094447;28;20242;-28
2023/11/28 05:10:22;;;;;;;1.98;1.02;;;;;;;;;;5093827;28;20250;-29
2023/11/28 05:12:47;;;;;;;3.60;1.48;;;;;;;;;;5093998;28;20090;-28
2023/11/28 05:15:12;;;;;;;1.73;1.07;;;;;;;;;;5094355;28;20027;-29
2023/11/28 05:17:38;;;;;;;2.35;1.23;;;;;;;;;;5093745;28;20763;-29
2023/11/28 05:20:04;;;;;;;1.50;1.05;;;;;;;;;;5093688;28;20032;-28
2023/11/28 05:22:29;;;;;;;2.63;1.20;;;;;;;;;;5093644;28;20020;-29
2023/11/28 05:24:54;;;;;;;2.67;1.40;;;;;;;;;;5093911;28;20099;-28
2023/11/28 05:27:20;;;;;;;3.75;1.60;;;;;;;;;;5093652;28;20063;-28
2023/11/28 05:29:45;;;;;;;4.00;1.60;;;;;;;;;;5094140;28;20059;-29
2023/11/28 05:32:10;;;;;;;4.28;1.50;;;;;;;;;;5093816;28;20258;-29
2023/11/28 05:34:35;;;;;;;7.97;1.55;;;;;;;;;;5094085;28;20023;-28
2023/11/28 05:37:00;;;;;;;3.45;1.42;;;;;;;;;;5093600;28;20139;-29
2023/11/28 05:39:26;;;;;;;3.03;1.53;;;;;;;;;;5093947;28;20017;-29
2023/11/28 05:41:51;;;;;;;3.45;1.70;;;;;;;;;;5093722;28;20604;-29
2023/11/28 05:44:16;;;;;;;4.97;1.30;;;;;;;;;;5093534;28;20107;-29
2023/11/28 05:46:41;;;;;;;3.20;1.25;;;;;;;;;;5093996;28;20016;-28
2023/11/28 05:49:06;;;;;;;4.77;2.13;;;;;;;;;;5093322;28;20459;-28
2023/11/28 05:51:31;;;;;;;3.88;1.58;;;;;;;;;;5093559;28;20308;-29
2023/11/28 05:53:59;;;;;;;2.38;1.45;;;;;;;;;;5093586;28;20050;-29
2023/11/28 05:56:25;;;;;;;4.95;1.85;;;;;;;;;;5093059;28;20094;-29
2023/11/28 05:58:50;;;;;;;17.98;2.30;;;;;;;;;;5093566;28;20024;-29
2023/11/28 06:01:15;;;;;;;3.25;1.60;;;;;;;;;;5093217;28;20099;-29
2023/11/28 06:03:41;;;;;;;4.03;1.50;;;;;;;;;;5093124;28;20111;-29
2023/11/28 06:06:06;;;;;;;5.15;1.77;;;;;;;;;;5095340;28;20043;-29
2023/11/28 06:08:32;;;;;;;2.63;1.50;;;;;;;;;;5097836;28;20020;-29
2023/11/28 06:11:00;;;;;;;4.20;1.40;;;;;;;;;;5097478;28;20352;-29
2023/11/28 06:13:25;;;;;;;2.58;1.42;;;;;;;;;;5097933;28;20027;-29
2023/11/28 06:15:50;;;;;;;4.68;2.13;;;;;;;;;;5097213;28;20020;-29
2023/11/28 06:18:15;;;;;;;4.20;1.67;;;;;;;;;;5097041;28;20020;-29
2023/11/28 06:20:41;;;;;;;4.60;2.13;;;;;;;;;;5097082;28;20253;-29
2023/11/28 06:23:06;;;;;;;2.85;1.77;;;;;;;;;;5097185;28;20364;-28
2023/11/28 06:25:32;;;;;;;8.33;1.70;;;;;;;;;;5096902;28;20496;-29
2023/11/28 06:27:57;;;;;;;3.05;1.73;;;;;;;;;;5097157;28;20262;-29
2023/11/28 06:30:22;;;;;;;3.65;1.90;;;;;;;;;;5096894;28;20024;-29
2023/11/28 06:32:48;;;;;;;7.95;1.70;;;;;;;;;;5096774;28;20382;-29
2023/11/28 06:35:13;;;;;;;4.25;1.70;;;;;;;;;;5097326;28;20020;-29
2023/11/28 06:37:38;;;;;;;6.55;1.80;;;;;;;;;;5097070;28;20408;-28
2023/11/28 06:40:03;;;;;;;2.47;1.73;;;;;;;;;;5096684;28;20032;-29
2023/11/28 06:42:29;;;;;;;4.10;1.80;;;;;;;;;;5097364;28;20016;-29
2023/11/28 06:44:54;;;;;;;4.75;2.13;;;;;;;;;;5096841;28;20028;-29
2023/11/28 06:47:19;;;;;;;3.67;1.83;;;;;;;;;;5097134;28;20044;-29
2023/11/28 06:49:45;;;;;;;3.45;1.85;;;;;;;;;;5096419;28;20246;-29
2023/11/28 06:52:10;;;;;;;7.45;2.35;;;;;;;;;;5096690;28;20019;-28
2023/11/28 06:54:35;;;;;;;3.17;1.87;;;;;;;;;;5097026;28;20020;-28
2023/11/28 06:57:00;;;;;;;3.60;2.08;;;;;;;;;;5096524;28;20304;-29
2023/11/28 06:59:26;;;;;;;3.73;2.03;;;;;;;;;;5096573;28;20012;-29
2023/11/28 07:01:51;;;;;;;5.33;2.30;;;;;;;;;;5096871;28;20248;-29
2023/11/28 07:04:17;;;;;;;4.23;2.00;;;;;;;;;;5096217;28;20677;-29
2023/11/28 07:06:42;;;;;;;8.43;2.13;;;;;;;;;;5096479;28;20265;-29
2023/11/28 07:09:07;;;;;;;4.47;2.28;;;;;;;;;;5096090;28;20024;-29
2023/11/28 07:11:33;;;;;;;6.22;2.90;;;;;;;;;;5096251;28;20020;-28
2023/11/28 07:14:00;;;;;;;5.28;2.63;;;;;;;;;;5096272;28;20090;-29
2023/11/28 07:16:25;;;;;;;5.72;2.45;;;;;;;;;;5095979;28;20020;-29
2023/11/28 07:18:51;;;;;;;4.68;2.40;;;;;;;;;;5095837;28;20158;-29
2023/11/28 07:21:16;;;;;;;5.97;2.23;;;;;;;;;;5095800;28;20024;-29
2023/11/28 07:23:43;;;;;;;4.28;2.30;;;;;;;;;;5095982;28;20281;-29
2023/11/28 07:26:09;;;;;;;6.00;2.25;;;;;;;;;;5095796;28;20455;-29
2023/11/28 07:28:35;;;;;;;9.25;2.03;;;;;;;;;;5096248;28;20466;-29
2023/11/28 07:31:00;;;;;;;5.57;1.85;;;;;;;;;;5095569;28;20020;-29
2023/11/28 07:33:25;;;;;;;7.25;2.25;;;;;;;;;;5095292;28;20027;-29
2023/11/28 07:35:51;;;;;;;5.00;2.13;;;;;;;;;;5095140;28;20031;-29
2023/11/28 07:38:17;;;;;;;5.20;2.00;;;;;;;;;;5095163;28;20729;-29
2023/11/28 07:40:42;;;;;;;4.70;2.08;;;;;;;;;;5095467;28;20055;-28
2023/11/28 07:43:08;;;;;;;6.97;2.43;;;;;;;;;;5095850;28;20024;-28
2023/11/28 07:45:33;;;;;;;3.45;2.10;;;;;;;;;;5095567;28;20800;-29
2023/11/28 07:47:58;;;;;;;7.32;2.30;;;;;;;;;;5095324;28;20103;-29
2023/11/28 07:50:24;;;;;;;4.93;2.10;;;;;;;;;;5095276;28;20020;-29
2023/11/28 07:52:49;;;;;;;4.25;2.28;;;;;;;;;;5095709;28;20016;-29
2023/11/28 07:55:14;;;;;;;6.88;2.50;;;;;;;;;;5095220;28;20487;-29
2023/11/28 07:57:39;;;;;;;8.05;2.40;;;;;;;;;;5094987;28;20101;-29
2023/11/28 08:00:07;;;;;;;9.33;2.60;;;;;;;;;;5095084;28;20490;-29
2023/11/28 08:02:32;;;;;;;4.68;2.58;;;;;;;;;;5094962;28;20250;-29
2023/11/28 08:04:58;;;;;;;3.95;2.30;;;;;;;;;;5076898;28;20014;-29
2023/11/28 08:07:23;;;;;;;5.30;2.35;;;;;;;;;;5095344;28;20020;-29
2023/11/28 08:09:48;;;;;;;7.23;2.50;;;;;;;;;;5094699;28;20421;-29
2023/11/28 08:12:13;;;;;;;5.35;2.40;;;;;;;;;;5094962;28;20312;-29
2023/11/28 08:14:38;;;;;;;5.25;2.60;;;;;;;;;;5094945;28;20020;-30
2023/11/28 08:17:04;;;;;;;6.73;2.47;;;;;;;;;;5076541;28;20055;-30
2023/11/28 08:19:30;;;;;;;5.38;2.80;;;;;;;;;;5095442;28;20290;-29
2023/11/28 08:21:55;;;;;;;5.30;2.55;;;;;;;;;;5094610;28;20015;-29
2023/11/28 08:24:20;;;;;;;7.27;2.60;;;;;;;;;;5095114;28;20020;-29
2023/11/28 08:26:45;;;;;;;7.87;3.00;;;;;;;;;;5095224;28;20337;-29
2023/11/28 08:29:10;;;;;;;7.33;2.77;;;;;;;;;;5093984;28;20246;-30
2023/11/28 08:31:35;;;;;;;5.20;2.70;;;;;;;;;;5095168;28;20289;-29
2023/11/28 08:34:01;;;;;;;4.45;2.88;;;;;;;;;;5094772;28;20736;-29
2023/11/28 08:36:26;;;;;;;6.93;3.10;;;;;;;;;;5094413;28;20016;-29
2023/11/28 08:38:51;;;;;;;6.05;2.78;;;;;;;;;;5094350;28;20262;-29
2023/11/28 08:41:18;;;;;;;6.23;2.50;;;;;;;;;;5094419;28;20012;-29
2023/11/28 08:43:43;;;;;;;8.57;3.25;;;;;;;;;;5094701;28;20393;-29
2023/11/28 08:46:09;;;;;;;5.72;3.22;;;;;;;;;;5094802;28;20336;-29
2023/11/28 08:48:34;;;;;;;7.03;3.10;;;;;;;;;;5094752;28;20043;-29
2023/11/28 08:51:00;;;;;;;9.80;3.28;;;;;;;;;;5094547;28;20407;-29
2023/11/28 08:53:25;;;;;;;5.50;2.88;;;;;;;;;;5094668;28;20020;-29
2023/11/28 08:55:50;;;;;;;7.90;2.77;;;;;;;;;;5093977;28;20352;-30
2023/11/28 08:58:15;;;;;;;5.87;4.00;;;;;;;;;;5094587;28;20254;-29
2023/11/28 09:00:41;;;;;;;3.40;2.40;;;;;;;;;;5093936;28;20776;-29
2023/11/28 09:03:06;;;;;;;8.23;2.70;;;;;;;;;;5094067;28;20290;-29
2023/11/28 09:05:31;;;;;;;5.07;2.67;;;;;;;;;;5093629;28;20482;-29
2023/11/28 09:07:57;;;;;;;9.73;2.90;;;;;;;;;;5092643;28;20451;-29
2023/11/28 09:10:22;;;;;;;6.05;3.20;;;;;;;;;;5092293;28;20467;-29
2023/11/28 09:12:48;;;;;;;3.90;2.38;;;;;;;;;;5093663;28;20031;-29
2023/11/28 09:15:14;;;;;;;4.43;2.70;;;;;;;;;;5093969;28;20024;-29
2023/11/28 09:17:39;;;;;;;6.15;2.85;;;;;;;;;;5093563;28;20459;-29
2023/11/28 09:20:05;;;;;;;5.43;2.65;;;;;;;;;;5093946;28;20019;-29
2023/11/28 09:22:30;;;;;;;3.33;2.22;;;;;;;;;;5093599;28;20043;-29
2023/11/28 09:24:55;;;;;;;3.72;2.30;;;;;;;;;;5093829;28;20485;-30
2023/11/28 09:27:20;;;;;;;5.03;2.42;;;;;;;;;;5093408;28;20017;-29
2023/11/28 09:29:45;;;;;;;6.27;2.90;;;;;;;;;;5093332;28;20040;-29
2023/11/28 09:32:12;;;;;;;8.05;2.75;;;;;;;;;;5093802;28;20269;-29
2023/11/28 09:34:38;;;;;;;6.53;3.05;;;;;;;;;;5093759;28;20016;-29
2023/11/28 09:37:03;;;;;;;5.30;2.67;;;;;;;;;;5093467;28;20490;-29
2023/11/28 09:39:28;;;;;;;5.13;3.00;;;;;;;;;;5093357;28;20258;-29
2023/11/28 09:41:56;;;;;;;5.68;2.58;;;;;;;;;;5092895;28;20016;-29
2023/11/28 09:44:25;;;;;;;4.15;2.50;;;;;;;;;;5093603;28;20016;-29
2023/11/28 09:46:51;;;;;;;9.38;1.90;;;;;;;;;;5093300;28;20014;-29
2023/11/28 09:49:17;;;;;;;4.57;2.20;;;;;;;;;;5093641;28;20031;-29
2023/11/28 09:51:46;;;;;;;4.50;2.40;;;;;;;;;;5093559;28;20012;-29
2023/11/28 09:54:13;;;;;;;7.30;2.20;;;;;;;;;;5093535;28;20012;-29
2023/11/28 09:56:38;;;;;;;4.65;2.00;;;;;;;;;;5093099;28;20044;-30
2023/11/28 09:59:05;;;;;;;5.22;1.85;;;;;;;;;;5093541;28;20030;-29
2023/11/28 10:01:31;;;;;;;3.40;1.90;;;;;;;;;;5093135;28;20020;-29
2023/11/28 10:04:00;;;;;;;3.13;1.95;;;;;;;;;;5092981;28;20030;-29
2023/11/28 10:06:25;;;;;;;3.45;1.80;;;;;;;;;;5093421;28;20023;-30
2023/11/28 10:08:52;;;;;;;4.63;1.83;;;;;;;;;;5094102;28;20103;-30
2023/11/28 10:11:17;;;;;;;4.22;1.80;;;;;;;;;;5093011;28;20016;-30
2023/11/28 10:13:46;;;;;;;4.82;2.33;;;;;;;;;;5091261;28;20086;-30
2023/11/28 10:16:12;;;;;;;3.03;1.67;;;;;;;;;;5092044;28;20024;-30
2023/11/28 10:18:38;;;;;;;2.85;1.60;;;;;;;;;;5093261;28;20103;-30
2023/11/28 10:21:03;;;;;;;2.57;1.70;;;;;;;;;;5093032;28;20446;-30
2023/11/28 10:23:28;;;;;;;2.88;1.50;;;;;;;;;;5093168;28;20626;-30
2023/11/28 10:25:54;;;;;;;3.15;1.55;;;;;;;;;;5093535;28;20066;-30
2023/11/28 10:28:20;;;;;;;3.33;1.52;;;;;;;;;;5092845;28;20034;-31
2023/11/28 10:30:50;;;;;;;3.58;1.38;;;;;;;;;;5093041;28;20020;-30
2023/11/28 10:33:15;;;;;;;4.88;1.75;;;;;;;;;;5093083;28;20008;-30
2023/11/28 10:35:41;;;;;;;5.43;1.40;;;;;;;;;;5092998;28;20482;-30
2023/11/28 10:38:10;;;;;;;5.72;1.50;;;;;;;;;;5093219;28;20027;-30
2023/11/28 10:40:35;;;;;;;2.45;1.25;;;;;;;;;;5093012;28;20018;-30
2023/11/28 10:43:00;;;;;;;3.17;1.60;;;;;;;;;;5092839;28;20536;-30
2023/11/28 10:45:26;;;;;;;2.20;1.27;;;;;;;;;;5093414;28;20039;-30
2023/11/28 10:47:52;;;;;;;2.55;1.42;;;;;;;;;;5092757;28;20099;-30
2023/11/28 10:50:17;;;;;;;3.50;1.40;;;;;;;;;;5092793;28;20035;-29
2023/11/28 10:52:45;;;;;;;4.15;1.60;;;;;;;;;;5095927;28;20566;-30
2023/11/28 10:55:12;;;;;;;3.60;1.50;;;;;;;;;;5096632;28;20095;-30
2023/11/28 10:57:57;;;;;;;3.88;1.70;;;;;;;;;;5096130;28;20044;-29
2023/11/28 11:00:24;;;;;;;4.05;1.90;;;;;;;;;;5095875;28;20027;-29
2023/11/28 11:02:50;;;;;;;5.30;1.60;;;;;;;;;;5096468;28;20039;-29
2023/11/28 11:05:15;;;;;;;4.13;1.67;;;;;;;;;;5096224;28;20016;-29
2023/11/28 11:07:41;;;;;;;2.63;1.63;;;;;;;;;;5096105;28;20008;-30
2023/11/28 11:10:08;;;;;;;3.30;1.50;;;;;;;;;;5096072;28;20016;-29
2023/11/28 11:12:35;;;;;;;3.33;1.70;;;;;;;;;;5096492;28;20012;-29
2023/11/28 11:15:04;;;;;;;4.22;1.55;;;;;;;;;;5096272;28;20103;-29
2023/11/28 11:17:43;;;;;;;6.50;1.90;;;;;;;;;;5096285;28;20135;-29
2023/11/28 11:20:09;;;;;;;2.97;1.33;;;;;;;;;;5096506;28;20020;-29
2023/11/28 11:22:36;;;;;;;4.15;1.58;;;;;;;;;;5096116;28;20024;-29
2023/11/28 11:25:03;;;;;;;2.55;1.70;;;;;;;;;;5095879;28;20047;-29
2023/11/28 11:27:28;;;;;;;3.25;1.50;;;;;;;;;;5095904;28;20024;-29
2023/11/28 11:29:55;;;;;;;4.93;1.70;;;;;;;;;;5095806;28;20038;-29
2023/11/28 11:32:20;;;;;;;4.15;1.70;;;;;;;;;;5095600;28;20383;-29
2023/11/28 11:34:49;;;;;;;3.60;1.45;;;;;;;;;;5095655;28;20028;-29
2023/11/28 11:37:17;;;;;;;3.50;1.63;;;;;;;;;;5095780;28;20024;-29
2023/11/28 11:39:46;;;;;;;3.65;1.58;;;;;;;;;;5095803;28;20024;-29
2023/11/28 11:42:21;;;;;;;4.93;1.70;;;;;;;;;;5095760;28;20020;-29
2023/11/28 11:44:50;;;;;;;5.70;1.45;;;;;;;;;;5095248;28;20023;-29
2023/11/28 11:47:22;;;;;;;4.65;1.67;;;;;;;;;;5095640;28;20023;-29
2023/11/28 11:49:51;;;;;;;4.90;1.83;;;;;;;;;;5095628;28;20095;-29
2023/11/28 11:52:17;;;;;;;3.58;1.90;;;;;;;;;;5095377;28;20091;-29
2023/11/28 11:54:43;;;;;;;7.13;2.00;;;;;;;;;;5095423;28;20098;-29
2023/11/28 11:57:09;;;;;;;4.47;2.35;;;;;;;;;;5093839;28;20083;-30
2023/11/28 11:59:34;;;;;;;3.88;1.55;;;;;;;;;;5095116;28;20335;-29
2023/11/28 12:02:01;;;;;;;3.30;1.92;;;;;;;;;;5095341;28;20020;-30
2023/11/28 12:04:26;;;;;;;4.85;1.77;;;;;;;;;;5094204;28;20012;-30
2023/11/28 12:07:08;;;;;;;5.45;1.77;;;;;;;;;;5094958;28;20016;-30
2023/11/28 12:09:34;;;;;;;2.60;1.20;;;;;;;;;;5094884;28;20020;-29
2023/11/28 12:11:59;;;;;;;3.70;1.45;;;;;;;;;;5093644;28;20071;-30
2023/11/28 12:14:25;;;;;;;3.53;1.50;;;;;;;;;;5094629;28;20467;-30
2023/11/28 12:16:51;;;;;;;4.82;1.70;;;;;;;;;;5095114;28;20028;-29
2023/11/28 12:19:16;;;;;;;3.38;1.55;;;;;;;;;;5095254;28;20023;-29
2023/11/28 12:21:41;;;;;;;2.37;1.30;;;;;;;;;;5095002;28;20038;-29
2023/11/28 12:24:07;;;;;;;4.73;1.90;;;;;;;;;;5094620;28;20266;-29
2023/11/28 12:26:34;;;;;;;5.05;1.75;;;;;;;;;;5095221;28;20091;-30
2023/11/28 12:29:00;;;;;;;3.15;1.60;;;;;;;;;;5093785;28;20016;-29
2023/11/28 12:31:25;;;;;;;4.60;1.80;;;;;;;;;;5092982;28;20012;-29
2023/11/28 12:33:50;;;;;;;3.58;1.75;;;;;;;;;;5094352;28;20103;-29
2023/11/28 12:36:15;;;;;;;4.47;1.70;;;;;;;;;;5094553;28;20016;-29
2023/11/28 12:38:41;;;;;;;6.55;2.38;;;;;;;;;;5094580;28;20337;-29
2023/11/28 12:41:06;;;;;;;6.45;2.30;;;;;;;;;;5076195;28;20459;-29
2023/11/28 12:43:34;;;;;;;8.25;2.35;;;;;;;;;;5094127;28;20024;-29
2023/11/28 12:46:00;;;;;;;8.52;2.47;;;;;;;;;;5094252;28;20020;-30
2023/11/28 12:48:26;;;;;;;6.90;2.28;;;;;;;;;;5093915;28;20024;-29
2023/11/28 12:50:52;;;;;;;6.00;2.55;;;;;;;;;;5093959;28;20067;-30
2023/11/28 12:53:21;;;;;;;6.03;2.75;;;;;;;;;;5094173;28;20478;-29
2023/11/28 12:55:47;;;;;;;4.13;2.50;;;;;;;;;;5094134;28;20020;-29
2023/11/28 12:58:12;;;;;;;4.63;2.50;;;;;;;;;;5093816;28;20052;-29
2023/11/28 13:00:38;;;;;;;7.47;2.60;;;;;;;;;;5056943;28;20031;-29
2023/11/28 13:03:03;;;;;;;5.57;2.70;;;;;;;;;;5094044;28;20051;-29
2023/11/28 13:05:29;;;;;;;6.35;2.50;;;;;;;;;;5092830;28;20012;-28
2023/11/28 13:07:54;;;;;;;4.78;2.58;;;;;;;;;;5093820;28;20012;-28
2023/11/28 13:10:20;;;;;;;6.88;2.88;;;;;;;;;;5094106;28;20035;-29
2023/11/28 13:12:45;;;;;;;5.53;2.70;;;;;;;;;;5093775;28;20375;-28
2023/11/28 13:15:11;;;;;;;5.83;2.47;;;;;;;;;;5093512;28;20494;-29
2023/11/28 13:17:36;;;;;;;10.30;2.70;;;;;;;;;;5093881;28;20290;-28
2023/11/28 13:20:01;;;;;;;5.93;2.42;;;;;;;;;;5093584;28;20012;-28
2023/11/28 13:22:26;;;;;;;5.60;2.60;;;;;;;;;;5094187;28;20016;-28
2023/11/28 13:24:53;;;;;;;4.33;2.67;;;;;;;;;;5093710;28;20028;-28
2023/11/28 13:27:19;;;;;;;6.72;2.90;;;;;;;;;;5093653;28;20265;-28
2023/11/28 13:29:46;;;;;;;4.57;2.60;;;;;;;;;;5093602;28;20095;-28
2023/11/28 13:32:11;;;;;;;6.85;2.88;;;;;;;;;;5093808;28;20032;-28
2023/11/28 13:34:41;;;;;;;5.18;2.70;;;;;;;;;;5093551;28;20018;-27
2023/11/28 13:37:07;;;;;;;8.18;2.83;;;;;;;;;;5093863;28;20451;-30
2023/11/28 13:39:33;;;;;;;5.57;2.97;;;;;;;;;;5093729;28;20105;-29
2023/11/28 13:41:58;;;;;;;9.57;3.33;;;;;;;;;;5075310;28;20110;-29
2023/11/28 13:44:23;;;;;;;7.60;3.60;;;;;;;;;;5092848;28;20451;-30
2023/11/28 13:46:48;;;;;;;7.03;3.50;;;;;;;;;;5092830;28;20312;-29
2023/11/28 13:49:14;;;;;;;4.93;3.10;;;;;;;;;;5093365;28;20146;-27
2023/11/28 13:51:39;;;;;;;5.00;3.13;;;;;;;;;;5075281;28;20477;-28
2023/11/28 13:54:05;;;;;;;6.22;3.40;;;;;;;;;;5092071;28;20020;-28
2023/11/28 13:56:30;;;;;;;6.72;3.63;;;;;;;;;;5093112;28;20036;-29
2023/11/28 13:58:55;;;;;;;5.43;3.35;;;;;;;;;;5093510;28;20032;-29
2023/11/28 14:01:20;;;;;;;6.72;3.10;;;;;;;;;;5093414;28;20020;-29
2023/11/28 14:03:46;;;;;;;6.30;3.05;;;;;;;;;;5093300;28;20074;-28
2023/11/28 14:06:11;;;;;;;6.25;3.28;;;;;;;;;;5093766;28;20012;-28
2023/11/28 14:08:38;;;;;;;5.25;3.17;;;;;;;;;;5093360;28;20066;-28
2023/11/28 14:11:04;;;;;;;7.15;3.22;;;;;;;;;;5093459;28;20008;-29
2023/11/28 14:13:29;;;;;;;6.38;3.25;;;;;;;;;;5093586;28;20116;-28
2023/11/28 14:15:54;;;;;;;7.22;3.08;;;;;;;;;;5075043;28;20135;-29
2023/11/28 14:18:20;;;;;;;6.35;2.92;;;;;;;;;;5093000;28;20135;-29
2023/11/28 14:20:45;;;;;;;7.03;3.35;;;;;;;;;;5074969;28;20017;-29
2023/11/28 14:23:11;;;;;;;7.53;3.30;;;;;;;;;;5092971;28;20075;-29
2023/11/28 14:25:36;;;;;;;6.82;3.03;;;;;;;;;;5093261;28;20012;-29
2023/11/28 14:28:03;;;;;;;7.30;3.50;;;;;;;;;;5096658;28;20429;-29
2023/11/28 14:30:29;;;;;;;8.43;3.65;;;;;;;;;;5097003;28;20023;-29
2023/11/28 14:32:54;;;;;;;6.60;3.67;;;;;;;;;;5097446;28;20016;-29
2023/11/28 14:35:19;;;;;;;8.63;3.85;;;;;;;;;;5078515;28;20736;-29